createdAt,value
2022-11-14T00:01:30.394Z,95788.25
2022-11-14T00:03:59.049Z,95779.22
2022-11-14T00:06:27.574Z,95786.16
2022-11-14T00:08:55.862Z,95767.72
2022-11-14T00:11:24.326Z,95772.75
2022-11-14T00:13:52.911Z,95793.81
2022-11-14T00:16:22.770Z,95795.72
2022-11-14T00:18:51.453Z,95720.16
2022-11-14T00:21:19.968Z,95802.34
2022-11-14T00:23:48.948Z,95799.97
2022-11-14T00:26:17.388Z,95793.47
2022-11-14T00:28:45.862Z,95730.47
2022-11-14T00:31:14.337Z,95703.22
2022-11-14T00:33:44.145Z,95797.22
2022-11-14T00:36:12.570Z,95729.53
2022-11-14T00:38:41.178Z,95785.63
2022-11-14T00:41:09.695Z,95789.28
2022-11-14T00:43:38.377Z,95779.69
2022-11-14T00:46:07.274Z,95773.09
2022-11-14T00:48:35.786Z,95773.09
2022-11-14T00:51:05.657Z,95731.22
2022-11-14T00:53:34.742Z,95763.31
2022-11-14T00:56:03.144Z,95644.16
2022-11-14T00:58:31.957Z,95755.19
2022-11-14T01:01:15.839Z,95748.66
2022-11-14T01:03:44.473Z,95745.03
2022-11-14T01:06:14.746Z,95719.56
2022-11-14T01:08:43.166Z,95734.78
2022-11-14T01:11:13.235Z,95736.84
2022-11-14T01:13:41.806Z,95740.09
2022-11-14T01:16:11.386Z,95734.41
2022-11-14T01:18:42.149Z,95699.03
2022-11-14T01:21:12.345Z,95724.59
2022-11-14T01:23:41.421Z,95728.25
2022-11-14T01:26:12.406Z,95718.47
2022-11-14T01:28:41.704Z,95721.94
2022-11-14T01:31:12.041Z,95721.94
2022-11-14T01:33:42.149Z,95726.66
2022-11-14T01:36:11.904Z,95703.91
2022-11-14T01:38:40.465Z,95712.75
2022-11-14T01:41:08.981Z,95704.44
2022-11-14T01:43:39.011Z,95702.56
2022-11-14T01:46:09.246Z,95701.53
2022-11-14T01:48:43.443Z,95696.81
2022-11-14T01:51:21.388Z,95665.03
2022-11-14T01:53:52.363Z,95666.63
2022-11-14T01:56:24.214Z,95675.56
2022-11-14T01:58:56.310Z,95675.56
2022-11-14T02:01:26.037Z,95667.59
2022-11-14T02:03:57.432Z,95665.84
2022-11-14T02:06:29.522Z,95637.41
2022-11-14T02:08:59.740Z,95579.31
2022-11-14T02:11:31.653Z,95663.38
2022-11-14T02:14:00.623Z,95633.81
2022-11-14T02:16:29.557Z,95665.06
2022-11-14T02:18:59.501Z,95675.13
2022-11-14T02:21:29.386Z,95666.53
2022-11-14T02:23:57.739Z,95663.28
2022-11-14T02:26:26.407Z,95634.63
2022-11-14T02:28:56.545Z,95559.63
2022-11-14T02:31:24.918Z,95620.38
2022-11-14T02:33:53.464Z,95665.50
2022-11-14T02:36:21.844Z,95651.66
2022-11-14T02:38:52.090Z,95656.53
2022-11-14T02:41:20.635Z,95645.91
2022-11-14T02:43:49.003Z,95660.78
2022-11-14T02:46:17.467Z,95656.88
2022-11-14T02:48:45.918Z,95581.94
2022-11-14T02:51:14.382Z,95648.25
2022-11-14T02:53:42.731Z,95651.50
2022-11-14T02:56:12.618Z,95603.75
2022-11-14T02:58:41.050Z,95614.50
2022-11-14T03:01:25.228Z,95647.97
2022-11-14T03:03:53.709Z,95647.78
2022-11-14T03:06:22.066Z,95640.75
2022-11-14T03:08:50.474Z,95639.06
2022-11-14T03:11:20.278Z,95640.03
2022-11-14T03:13:48.673Z,95589.81
2022-11-14T03:16:17.030Z,95636.47
2022-11-14T03:18:45.512Z,95542.66
2022-11-14T03:21:16.107Z,95625.41
2022-11-14T03:23:45.059Z,95641.72
2022-11-14T03:26:15.023Z,95617.72
2022-11-14T03:28:45.105Z,95641.63
2022-11-14T03:31:15.817Z,95640.16
2022-11-14T03:33:44.202Z,95638.69
2022-11-14T03:36:12.634Z,95600.09
2022-11-14T03:38:41.044Z,95644.28
2022-11-14T03:41:09.460Z,95643.41
2022-11-14T03:43:37.855Z,95592.75
2022-11-14T03:46:08.095Z,95584.13
2022-11-14T03:48:36.451Z,95572.59
2022-11-14T03:51:05.083Z,95636.59
2022-11-14T03:53:33.426Z,95647.94
2022-11-14T03:56:01.761Z,95630.06
2022-11-14T03:58:30.510Z,95625.22
2022-11-14T04:00:59.259Z,95606.09
2022-11-14T04:03:29.071Z,95469.34
2022-11-14T04:05:57.803Z,95624.56
2022-11-14T04:08:26.265Z,95613.78
2022-11-14T04:10:54.750Z,95629.34
2022-11-14T04:13:23.584Z,95626.00
2022-11-14T04:15:57.354Z,95617.88
2022-11-14T04:18:26.530Z,95609.22
2022-11-14T04:20:57.403Z,95603.09
2022-11-14T04:23:25.864Z,95583.41
2022-11-14T04:25:54.673Z,95601.13
2022-11-14T04:28:23.091Z,95588.38
2022-11-14T04:30:51.489Z,95591.16
2022-11-14T04:33:19.889Z,95548.63
2022-11-14T04:35:48.334Z,95516.56
2022-11-14T04:38:18.105Z,95441.72
2022-11-14T04:40:51.465Z,95582.34
2022-11-14T04:43:20.359Z,95555.03
2022-11-14T04:45:49.159Z,95551.56
2022-11-14T04:48:17.730Z,95572.84
2022-11-14T04:50:46.977Z,95496.66
2022-11-14T04:53:15.452Z,95560.00
2022-11-14T04:55:45.994Z,95528.63
2022-11-14T04:58:14.507Z,95567.19
2022-11-14T05:00:42.959Z,95540.66
2022-11-14T05:03:11.689Z,95512.16
2022-11-14T05:05:42.205Z,95550.84
2022-11-14T05:08:10.903Z,95563.47
2022-11-14T05:10:39.291Z,95559.44
2022-11-14T05:13:09.103Z,95559.66
2022-11-14T05:15:37.621Z,95561.75
2022-11-14T05:18:06.424Z,95495.03
2022-11-14T05:20:35.115Z,95533.84
2022-11-14T05:23:03.601Z,95539.28
2022-11-14T05:25:32.016Z,95517.75
2022-11-14T05:28:00.462Z,95545.53
2022-11-14T05:30:31.289Z,95547.97
2022-11-14T05:33:01.056Z,95535.47
2022-11-14T05:35:29.645Z,95464.50
2022-11-14T05:38:00.030Z,95500.50
2022-11-14T05:40:28.663Z,95518.19
2022-11-14T05:42:57.431Z,95529.44
2022-11-14T05:45:25.961Z,95520.41
2022-11-14T05:47:55.901Z,95519.34
2022-11-14T05:50:24.254Z,95495.06
2022-11-14T05:52:53.323Z,95506.63
2022-11-14T05:55:25.011Z,95514.59
2022-11-14T05:57:53.640Z,95508.22
2022-11-14T06:00:22.750Z,95488.66
2022-11-14T06:02:55.686Z,95514.00
2022-11-14T06:05:25.410Z,95509.84
2022-11-14T06:07:58.022Z,95508.81
2022-11-14T06:10:27.583Z,95513.22
2022-11-14T06:12:56.268Z,95502.44
2022-11-14T06:15:24.644Z,95516.56
2022-11-14T06:17:56.286Z,95519.47
2022-11-14T06:20:24.586Z,95521.53
2022-11-14T06:22:56.514Z,95522.81
2022-11-14T06:25:24.814Z,95528.16
2022-11-14T06:27:53.291Z,95444.44
2022-11-14T06:30:21.805Z,95515.28
2022-11-14T06:32:50.150Z,95454.78
2022-11-14T06:35:20.757Z,95522.59
2022-11-14T06:37:49.150Z,95502.44
2022-11-14T06:40:17.831Z,95377.88
2022-11-14T06:42:46.258Z,95517.03
2022-11-14T06:45:15.382Z,95509.88
2022-11-14T06:47:44.430Z,95521.66
2022-11-14T06:50:12.902Z,95529.88
2022-11-14T06:52:42.809Z,95525.84
2022-11-14T06:55:11.241Z,95530.00
2022-11-14T06:57:39.645Z,95530.00
2022-11-14T07:00:09.639Z,95521.44
2022-11-14T07:02:38.047Z,95519.59
2022-11-14T07:05:07.170Z,95522.91
2022-11-14T07:07:35.596Z,95539.94
2022-11-14T07:10:05.764Z,95534.94
2022-11-14T07:12:34.693Z,95465.91
2022-11-14T07:15:03.122Z,95457.56
2022-11-14T07:17:31.849Z,95525.53
2022-11-14T07:20:00.506Z,95544.09
2022-11-14T07:22:28.880Z,95533.19
2022-11-14T07:24:57.257Z,95547.22
2022-11-14T07:27:27.002Z,95542.16
2022-11-14T07:29:55.702Z,95547.34
2022-11-14T07:32:24.073Z,95552.94
2022-11-14T07:34:52.543Z,95521.19
2022-11-14T07:37:20.927Z,95535.56
2022-11-14T07:39:49.907Z,95507.31
2022-11-14T07:42:18.462Z,95521.06
2022-11-14T07:44:48.297Z,95533.41
2022-11-14T07:47:16.730Z,95538.38
2022-11-14T07:49:45.183Z,95549.91
2022-11-14T07:52:13.541Z,95521.88
2022-11-14T07:54:42.108Z,95504.44
2022-11-14T07:57:10.510Z,95468.53
2022-11-14T07:59:38.946Z,95536.28
2022-11-14T08:02:10.895Z,95558.88
2022-11-14T08:04:40.101Z,95531.94
2022-11-14T08:07:08.583Z,95521.94
2022-11-14T08:09:37.289Z,95506.75
2022-11-14T08:12:06.262Z,95503.84
2022-11-14T08:14:35.103Z,95519.41
2022-11-14T08:17:03.477Z,95468.25
2022-11-14T08:19:33.216Z,95520.56
2022-11-14T08:22:01.589Z,95518.19
2022-11-14T08:24:29.982Z,95511.03
2022-11-14T08:26:58.388Z,95540.06
2022-11-14T08:29:26.902Z,95501.47
2022-11-14T08:31:59.712Z,95518.00
2022-11-14T08:34:29.398Z,95507.66
2022-11-14T08:36:59.336Z,95485.63
2022-11-14T08:39:27.951Z,95513.72
2022-11-14T08:41:56.504Z,95498.16
2022-11-14T08:44:24.985Z,95475.13
2022-11-14T08:46:53.346Z,95502.13
2022-11-14T08:49:21.777Z,95492.53
2022-11-14T08:51:50.298Z,95509.13
2022-11-14T08:54:20.285Z,95499.56
2022-11-14T08:56:48.662Z,95507.66
2022-11-14T08:59:17.406Z,95508.78
2022-11-14T09:01:46.635Z,95524.13
2022-11-14T09:04:15.149Z,95512.13
2022-11-14T09:06:43.703Z,95514.84
2022-11-14T09:09:12.310Z,95285.03
2022-11-14T09:11:42.668Z,95487.19
2022-11-14T09:14:11.182Z,95517.13
2022-11-14T09:16:39.560Z,95519.06
2022-11-14T09:19:08.166Z,95507.56
2022-11-14T09:21:36.522Z,95500.31
2022-11-14T09:24:05.137Z,95504.41
2022-11-14T09:26:33.749Z,95488.31
2022-11-14T09:29:04.504Z,95497.47
2022-11-14T09:31:32.880Z,95506.66
2022-11-14T09:34:01.369Z,95504.22
2022-11-14T09:36:29.726Z,95507.75
2022-11-14T09:38:58.150Z,95513.97
2022-11-14T09:41:28.058Z,95515.34
2022-11-14T09:44:23.775Z,95512.66
2022-11-14T09:46:57.681Z,95519.69
2022-11-14T09:49:33.236Z,95515.16
2022-11-14T09:52:12.130Z,95516.56
2022-11-14T09:54:45.771Z,95519.78
2022-11-14T09:57:18.025Z,95536.69
2022-11-14T09:59:47.989Z,95531.38
2022-11-14T10:02:32.082Z,95523.34
2022-11-14T10:05:05.524Z,95524.38
2022-11-14T10:07:46.553Z,95528.22
2022-11-14T10:10:28.486Z,95549.47
2022-11-14T10:13:07.690Z,95525.28
2022-11-14T10:15:43.635Z,95490.31
2022-11-14T10:18:31.305Z,95533.94
2022-11-14T10:21:08.006Z,95535.53
2022-11-14T10:23:44.217Z,95515.63
2022-11-14T10:26:18.498Z,95462.41
2022-11-14T10:29:02.907Z,95500.56
2022-11-14T10:31:44.474Z,95508.09
2022-11-14T10:34:17.455Z,95496.78
2022-11-14T10:36:59.013Z,95494.06
2022-11-14T10:39:33.076Z,95499.16
2022-11-14T10:42:07.895Z,95474.19
2022-11-14T10:44:42.295Z,95507.97
2022-11-14T10:47:18.866Z,95507.38
2022-11-14T10:49:51.606Z,95508.72
2022-11-14T10:52:24.410Z,95508.13
2022-11-14T10:55:00.219Z,95503.47
2022-11-14T10:57:30.293Z,95515.56
2022-11-14T10:59:58.618Z,95481.94
2022-11-14T11:02:32.726Z,95488.13
2022-11-14T11:05:15.728Z,95510.84
2022-11-14T11:08:28.275Z,95511.38
2022-11-14T11:11:17.135Z,95448.47
2022-11-14T11:13:54.989Z,95519.13
2022-11-14T11:16:24.782Z,95491.91
2022-11-14T11:18:55.030Z,95514.50
2022-11-14T11:21:24.831Z,95458.03
2022-11-14T11:23:55.192Z,95514.94
2022-11-14T11:26:26.422Z,95496.25
2022-11-14T11:29:07.457Z,95476.78
2022-11-14T11:31:53.075Z,95514.03
2022-11-14T11:34:26.660Z,95524.06
2022-11-14T11:37:01.433Z,95507.75
2022-11-14T11:39:31.847Z,95516.41
2022-11-14T11:42:11.117Z,95511.47
2022-11-14T11:44:44.934Z,95499.28
2022-11-14T11:47:14.965Z,95511.97
2022-11-14T11:49:53.328Z,95508.97
2022-11-14T11:52:32.475Z,95473.78
2022-11-14T11:55:06.593Z,95505.41
2022-11-14T11:57:40.767Z,95385.81
2022-11-14T12:00:17.569Z,95491.31
2022-11-14T12:02:50.447Z,95505.56
2022-11-14T12:05:27.121Z,95498.84
2022-11-14T12:08:01.877Z,95492.44
2022-11-14T12:10:34.506Z,95491.94
2022-11-14T12:13:36.535Z,95522.66
2022-11-14T12:16:20.986Z,95512.97
2022-11-14T12:19:38.702Z,95514.13
2022-11-14T12:22:22.023Z,95488.13
2022-11-14T12:25:18.755Z,95512.84
2022-11-14T12:28:03.254Z,95513.72
2022-11-14T12:30:36.104Z,95520.44
2022-11-14T12:33:10.964Z,95520.75
2022-11-14T12:35:47.654Z,95525.34
2022-11-14T12:38:19.748Z,95470.28
2022-11-14T12:40:53.935Z,95515.34
2022-11-14T12:43:36.402Z,95354.31
2022-11-14T12:46:08.704Z,95504.63
2022-11-14T12:48:39.310Z,95514.84
2022-11-14T12:51:43.563Z,95511.09
2022-11-14T12:54:44.953Z,95497.34
2022-11-14T12:57:46.059Z,95498.16
2022-11-14T13:00:15.334Z,95492.50
2022-11-14T13:03:15.761Z,95490.63
2022-11-14T13:05:56.762Z,95490.09
2022-11-14T13:08:48.046Z,95453.09
2022-11-14T13:12:02.886Z,95491.75
2022-11-14T13:14:49.225Z,95494.28
2022-11-14T13:17:44.275Z,95489.00
2022-11-14T13:20:49.946Z,95492.63
2022-11-14T13:23:51.536Z,95487.53
2022-11-14T13:26:50.592Z,95461.75
2022-11-14T13:29:56.433Z,95494.09
2022-11-14T13:33:06.689Z,95490.88
2022-11-14T13:35:50.539Z,95488.19
2022-11-14T13:38:46.426Z,95497.38
2022-11-14T13:41:47.369Z,95500.06
2022-11-14T13:44:44.850Z,95487.66
2022-11-14T13:47:27.570Z,95496.31
2022-11-14T13:50:03.277Z,95448.78
2022-11-14T13:52:35.608Z,95462.50
2022-11-14T13:55:04.797Z,95472.91
2022-11-14T13:57:47.646Z,95468.81
2022-11-14T14:00:21.168Z,95472.09
2022-11-14T14:03:06.616Z,95473.28
2022-11-14T14:05:49.986Z,95469.97
2022-11-14T14:08:34.866Z,95451.16
2022-11-14T14:11:22.087Z,95462.47
2022-11-14T14:14:01.726Z,95460.84
2022-11-14T14:16:38.085Z,95444.19
2022-11-14T14:19:16.495Z,95426.28
2022-11-14T14:21:52.825Z,95460.63
2022-11-14T14:24:42.501Z,95462.50
2022-11-14T14:27:19.892Z,95457.16
2022-11-14T14:30:01.763Z,95450.16
2022-11-14T14:32:32.007Z,95455.00
2022-11-14T14:35:00.923Z,95451.81
2022-11-14T14:37:30.969Z,95448.81
2022-11-14T14:40:01.285Z,95460.97
2022-11-14T14:42:46.964Z,95455.06
2022-11-14T14:45:17.702Z,95447.28
2022-11-14T14:47:50.209Z,95459.97
2022-11-14T14:50:22.582Z,95461.06
2022-11-14T14:52:58.278Z,95450.03
2022-11-14T14:55:28.694Z,95444.72
2022-11-14T14:57:56.975Z,95453.06
2022-11-14T15:00:26.946Z,95443.91
2022-11-14T15:02:58.485Z,95428.34
2022-11-14T15:05:29.507Z,95434.78
2022-11-14T15:08:00.785Z,95393.44
2022-11-14T15:10:32.222Z,95420.81
2022-11-14T15:13:01.189Z,95432.94
2022-11-14T15:15:31.239Z,95422.16
2022-11-14T15:18:06.034Z,95417.88
2022-11-14T15:20:34.533Z,95422.47
2022-11-14T15:23:08.241Z,95390.50
2022-11-14T15:25:36.250Z,95420.88
2022-11-14T15:28:07.512Z,95409.84
2022-11-14T15:30:39.512Z,95415.50
2022-11-14T15:33:29.453Z,95407.16
2022-11-14T15:36:09.772Z,95407.16
2022-11-14T15:38:54.082Z,95385.44
2022-11-14T15:41:23.614Z,95405.03
2022-11-14T15:43:53.590Z,95407.47
2022-11-14T15:46:38.772Z,95383.84
2022-11-14T15:49:20.901Z,95394.38
2022-11-14T15:51:52.437Z,95411.28
2022-11-14T15:54:24.005Z,95409.69
2022-11-14T15:56:53.376Z,95404.84
2022-11-14T15:59:21.843Z,95390.09
2022-11-14T16:01:53.319Z,95410.78
2022-11-14T16:04:27.148Z,95407.56
2022-11-14T16:06:55.270Z,95404.06
2022-11-14T16:09:23.883Z,95412.13
2022-11-14T16:11:53.291Z,95398.44
2022-11-14T16:14:21.676Z,95415.38
2022-11-14T16:16:50.128Z,95410.25
2022-11-14T16:19:18.740Z,95366.47
2022-11-14T16:21:48.537Z,95413.47
2022-11-14T16:24:19.481Z,95410.81
2022-11-14T16:26:48.163Z,95378.81
2022-11-14T16:29:17.026Z,95361.09
2022-11-14T16:31:45.526Z,95399.50
2022-11-14T16:34:18.630Z,95314.09
2022-11-14T16:36:55.434Z,95395.75
2022-11-14T16:39:23.905Z,95390.91
2022-11-14T16:41:52.292Z,95394.66
2022-11-14T16:44:20.965Z,95342.56
2022-11-14T16:46:49.406Z,95380.72
2022-11-14T16:49:19.813Z,95380.72
2022-11-14T16:51:51.361Z,95380.44
2022-11-14T16:54:21.099Z,95353.28
2022-11-14T16:56:49.701Z,95375.34
2022-11-14T16:59:20.053Z,95378.56
2022-11-14T17:01:52.001Z,95372.09
2022-11-14T17:04:20.798Z,95380.44
2022-11-14T17:06:52.441Z,95378.00
2022-11-14T17:09:21.838Z,95380.97
2022-11-14T17:11:50.927Z,95368.28
2022-11-14T17:14:20.437Z,95399.22
2022-11-14T17:16:48.922Z,95393.31
2022-11-14T17:19:17.373Z,95391.41
2022-11-14T17:21:45.775Z,95387.63
2022-11-14T17:24:15.923Z,95384.94
2022-11-14T17:26:44.576Z,95393.53
2022-11-14T17:29:13.919Z,95393.25
2022-11-14T17:31:46.809Z,95374.72
2022-11-14T17:34:15.731Z,95389.53
2022-11-14T17:36:44.335Z,95352.16
2022-11-14T17:39:12.895Z,95395.47
2022-11-14T17:41:42.779Z,95389.81
2022-11-14T17:44:12.157Z,95384.16
2022-11-14T17:46:40.841Z,95392.50
2022-11-14T17:49:09.661Z,95381.75
2022-11-14T17:51:38.338Z,95385.00
2022-11-14T17:54:06.836Z,95378.03
2022-11-14T17:56:35.665Z,95384.72
2022-11-14T17:59:06.320Z,95383.63
2022-11-14T18:01:35.109Z,95381.25
2022-11-14T18:04:06.372Z,95383.38
2022-11-14T18:06:35.565Z,95351.91
2022-11-14T18:09:08.139Z,95331.25
2022-11-14T18:11:39.035Z,95321.56
2022-11-14T18:14:09.027Z,95379.34
2022-11-14T18:17:05.258Z,95378.03
2022-11-14T18:19:26.918Z,95374.53
2022-11-14T18:21:55.609Z,95218.97
2022-11-14T18:24:24.288Z,95372.66
2022-11-14T18:26:52.978Z,95371.56
2022-11-14T18:29:23.431Z,95334.44
2022-11-14T18:31:52.025Z,95374.47
2022-11-14T18:34:21.002Z,95362.91
2022-11-14T18:36:49.669Z,95364.56
2022-11-14T18:39:18.039Z,95366.41
2022-11-14T18:41:46.790Z,95353.25
2022-11-14T18:44:15.200Z,95371.25
2022-11-14T18:46:45.285Z,95363.69
2022-11-14T18:49:13.768Z,95366.13
2022-11-14T18:51:43.347Z,95370.16
2022-11-14T18:54:13.334Z,95371.50
2022-11-14T18:56:42.430Z,95364.50
2022-11-14T18:59:11.456Z,95374.19
2022-11-14T19:01:39.917Z,95360.19
2022-11-14T19:04:11.826Z,95332.28
2022-11-14T19:06:41.846Z,95358.31
2022-11-14T19:09:12.674Z,95358.28
2022-11-14T19:11:58.489Z,95359.09
2022-11-14T19:14:26.829Z,95349.16
2022-11-14T19:16:55.294Z,95298.13
2022-11-14T19:19:25.082Z,95350.75
2022-11-14T19:21:53.496Z,95355.31
2022-11-14T19:24:22.070Z,95324.66
2022-11-14T19:26:50.453Z,95356.38
2022-11-14T19:29:20.669Z,95337.00
2022-11-14T19:31:50.836Z,95357.44
2022-11-14T19:34:21.378Z,95362.03
2022-11-14T19:36:59.815Z,95361.16
2022-11-14T19:39:31.016Z,95361.66
2022-11-14T19:42:00.845Z,95357.94
2022-11-14T19:44:31.518Z,95370.00
2022-11-14T19:47:01.377Z,95340.16
2022-11-14T19:49:31.594Z,95366.00
2022-11-14T19:52:03.018Z,95358.47
2022-11-14T19:54:32.725Z,95363.31
2022-11-14T19:57:02.817Z,95361.78
2022-11-14T19:59:32.647Z,95371.94
2022-11-14T20:02:02.791Z,95373.03
2022-11-14T20:04:36.907Z,95380.28
2022-11-14T20:07:09.774Z,95376.56
2022-11-14T20:09:39.558Z,95364.47
2022-11-14T20:12:09.744Z,95371.75
2022-11-14T20:14:39.594Z,95370.94
2022-11-14T20:17:10.568Z,95358.63
2022-11-14T20:19:40.575Z,95347.31
2022-11-14T20:22:11.273Z,95362.91
2022-11-14T20:24:39.796Z,95358.63
2022-11-14T20:27:08.382Z,95325.28
2022-11-14T20:29:36.933Z,95360.78
2022-11-14T20:32:05.710Z,95193.47
2022-11-14T20:34:34.344Z,95355.16
2022-11-14T20:37:11.061Z,95349.50
2022-11-14T20:39:41.652Z,95348.44
2022-11-14T20:42:10.086Z,95361.84
2022-11-14T20:44:38.641Z,95359.69
2022-11-14T20:47:10.832Z,95372.63
2022-11-14T20:49:40.574Z,95247.16
2022-11-14T20:52:09.055Z,95354.09
2022-11-14T20:54:37.833Z,95344.41
2022-11-14T20:57:07.809Z,95348.47
2022-11-14T20:59:36.337Z,95342.56
2022-11-14T21:02:05.588Z,95331.22
2022-11-14T21:04:34.095Z,95349.03
2022-11-14T21:07:02.785Z,95360.81
2022-11-14T21:09:31.354Z,95364.84
2022-11-14T21:11:59.912Z,95353.31
2022-11-14T21:14:29.690Z,95353.31
2022-11-14T21:16:58.042Z,95353.31
2022-11-14T21:19:26.653Z,95337.75
2022-11-14T21:21:54.946Z,95365.13
2022-11-14T21:24:23.421Z,95364.59
2022-11-14T21:26:51.930Z,95373.72
2022-11-14T21:29:20.606Z,95376.13
2022-11-14T21:31:50.760Z,95361.13
2022-11-14T21:34:19.178Z,95371.03
2022-11-14T21:36:48.361Z,95317.28
2022-11-14T21:39:17.600Z,95379.91
2022-11-14T21:41:48.621Z,95377.50
2022-11-14T21:44:18.950Z,95377.47
2022-11-14T21:46:48.894Z,95365.41
2022-11-14T21:49:18.880Z,95376.44
2022-11-14T21:51:48.516Z,95368.88
2022-11-14T21:54:16.894Z,95368.34
2022-11-14T21:56:45.318Z,95367.28
2022-11-14T21:59:18.533Z,95346.31
2022-11-14T22:02:06.673Z,95382.84
2022-11-14T22:04:37.135Z,95379.63
2022-11-14T22:07:07.709Z,95373.44
2022-11-14T22:09:41.122Z,95371.03
2022-11-14T22:12:13.129Z,95368.91
2022-11-14T22:14:41.535Z,95368.34
2022-11-14T22:17:09.814Z,95365.16
2022-11-14T22:19:40.012Z,95369.16
2022-11-14T22:22:09.259Z,95360.28
2022-11-14T22:24:37.645Z,95344.72
2022-11-14T22:27:06.371Z,95325.13
2022-11-14T22:29:34.764Z,95366.19
2022-11-14T22:32:03.097Z,95364.59
2022-11-14T22:34:31.487Z,95364.06
2022-11-14T22:37:01.234Z,95357.06
2022-11-14T22:39:29.957Z,95346.59
2022-11-14T22:41:58.302Z,95363.53
2022-11-14T22:44:27.098Z,95359.75
2022-11-14T22:46:55.499Z,95355.19
2022-11-14T22:49:23.874Z,95356.53
2022-11-14T22:51:52.329Z,95365.13
2022-11-14T22:54:22.560Z,95360.28
2022-11-14T22:56:51.038Z,95352.50
2022-11-14T22:59:19.438Z,95338.56
2022-11-14T23:01:47.890Z,95372.38
2022-11-14T23:04:16.367Z,95369.94
2022-11-14T23:06:44.894Z,95372.94
2022-11-14T23:09:13.437Z,95349.56
2022-11-14T23:11:43.279Z,95379.09
2022-11-14T23:14:14.602Z,95339.63
2022-11-14T23:16:43.009Z,95377.75
2022-11-14T23:19:11.439Z,95370.22
2022-11-14T23:21:39.878Z,95380.19
2022-11-14T23:24:13.374Z,95349.25
2022-11-14T23:26:43.117Z,95345.25
2022-11-14T23:29:15.258Z,95372.66
2022-11-14T23:31:43.722Z,95379.63
2022-11-14T23:34:12.115Z,95369.16
2022-11-14T23:36:40.534Z,95376.94
2022-11-14T23:39:08.934Z,95337.75
2022-11-14T23:41:37.496Z,95367.53
2022-11-14T23:44:07.324Z,95300.13
2022-11-14T23:46:35.654Z,95372.38
2022-11-14T23:49:04.174Z,95354.66
2022-11-14T23:51:33.150Z,95353.28
2022-11-14T23:54:01.598Z,95354.38
2022-11-14T23:56:29.989Z,95360.56
2022-11-14T23:58:58.471Z,95350.88
